National Weather Service Raw Text Product

Displaying AFOS PIL: TAFFOD Received: 2017-08-13 11:32 UTC


398 
FTUS43 KDMX 131132
TAFFOD
TAF
KFOD 131132Z 1312/1412 14006KT P6SM VCSH SCT050 BKN100
     FM131500 16009G15KT P6SM SCT070 BKN120
     FM140000 15008KT P6SM VCTS SCT060CB BKN100
     FM140500 14006KT P6SM BKN050=